Terminal Aerodrome Forecast
Issued by NWS Nashville, TN

Home | Current Version | Previous Version | Text Only | Print | Product List | Glossary On
Versions: 1 2 3 4 5 6 7 8 9 10 11 12 13 14 15 16 17 18 19 20 21 22 23 24 25 26 27 28 29 30 31 32 33 34 35 36 37 38 39
567
FTUS44 KOHX 271144 AAA
TAFCSV
TAF AMD
KCSV 271144Z 2712/2812 18003KT P6SM SCT004
     FM271500 17003KT P6SM VCSH SCT030 SCT100 BKN200
     FM271800 15005KT P6SM VCTS BKN030CB BKN100 BKN200
     FM280200 11003KT P6SM VCSH SCT030 BKN100 BKN200
     FM280800 08003KT 4SM BR SCT100 BKN200=

USA.gov is the U.S. government's official web portal to all federal, state and local government web resources and services.